sensor_id;sensor_type;location;lat;lon;timestamp;P1;durP1;ratioP1;P2;durP2;ratioP2
35126;SDS011;21300;52.006;5.798;2022-07-29T00:00:13;2.47;;;1.00;;
35126;SDS011;21300;52.006;5.798;2022-07-29T00:02:39;2.80;;;0.90;;
35126;SDS011;21300;52.006;5.798;2022-07-29T00:05:05;3.42;;;1.25;;
35126;SDS011;21300;52.006;5.798;2022-07-29T00:07:31;2.45;;;1.02;;
35126;SDS011;21300;52.006;5.798;2022-07-29T00:09:56;4.68;;;1.23;;
35126;SDS011;21300;52.006;5.798;2022-07-29T00:12:23;4.88;;;1.10;;
35126;SDS011;21300;52.006;5.798;2022-07-29T00:14:50;2.90;;;1.10;;
35126;SDS011;21300;52.006;5.798;2022-07-29T00:17:17;2.83;;;1.00;;
35126;SDS011;21300;52.006;5.798;2022-07-29T00:19:42;5.13;;;1.20;;
35126;SDS011;21300;52.006;5.798;2022-07-29T00:22:08;4.88;;;1.20;;
35126;SDS011;21300;52.006;5.798;2022-07-29T00:24:34;3.45;;;1.20;;
35126;SDS011;21300;52.006;5.798;2022-07-29T00:26:59;3.35;;;1.05;;
35126;SDS011;21300;52.006;5.798;2022-07-29T00:29:25;3.88;;;1.30;;
35126;SDS011;21300;52.006;5.798;2022-07-29T00:31:50;3.83;;;1.52;;
35126;SDS011;21300;52.006;5.798;2022-07-29T00:34:16;5.38;;;1.10;;
35126;SDS011;21300;52.006;5.798;2022-07-29T00:37:01;2.35;;;1.02;;
35126;SDS011;21300;52.006;5.798;2022-07-29T00:39:26;3.42;;;1.25;;
35126;SDS011;21300;52.006;5.798;2022-07-29T00:41:52;3.55;;;0.90;;
35126;SDS011;21300;52.006;5.798;2022-07-29T00:44:18;3.15;;;1.15;;
35126;SDS011;21300;52.006;5.798;2022-07-29T00:46:44;3.63;;;1.30;;
35126;SDS011;21300;52.006;5.798;2022-07-29T00:49:09;2.53;;;1.15;;
35126;SDS011;21300;52.006;5.798;2022-07-29T00:51:35;5.60;;;1.60;;
35126;SDS011;21300;52.006;5.798;2022-07-29T00:54:02;4.18;;;1.30;;
35126;SDS011;21300;52.006;5.798;2022-07-29T00:56:32;5.32;;;1.48;;
35126;SDS011;21300;52.006;5.798;2022-07-29T00:58:58;2.97;;;1.08;;
35126;SDS011;21300;52.006;5.798;2022-07-29T01:01:25;3.15;;;1.15;;
35126;SDS011;21300;52.006;5.798;2022-07-29T01:03:51;2.47;;;1.13;;
35126;SDS011;21300;52.006;5.798;2022-07-29T01:06:17;4.55;;;1.20;;
35126;SDS011;21300;52.006;5.798;2022-07-29T01:08:44;4.53;;;1.20;;
35126;SDS011;21300;52.006;5.798;2022-07-29T01:11:10;3.78;;;1.30;;
35126;SDS011;21300;52.006;5.798;2022-07-29T01:13:37;3.67;;;1.20;;
35126;SDS011;21300;52.006;5.798;2022-07-29T01:16:25;3.83;;;1.10;;
35126;SDS011;21300;52.006;5.798;2022-07-29T01:26:48;2.30;;;1.25;;
35126;SDS011;21300;52.006;5.798;2022-07-29T01:29:28;2.75;;;1.70;;
35126;SDS011;21300;52.006;5.798;2022-07-29T01:32:02;5.85;;;1.50;;
35126;SDS011;21300;52.006;5.798;2022-07-29T01:34:35;4.05;;;1.17;;
35126;SDS011;21300;52.006;5.798;2022-07-29T01:37:21;3.25;;;1.17;;
35126;SDS011;21300;52.006;5.798;2022-07-29T01:39:57;5.82;;;1.70;;
35126;SDS011;21300;52.006;5.798;2022-07-29T01:47:46;3.08;;;1.35;;
35126;SDS011;21300;52.006;5.798;2022-07-29T01:50:19;7.47;;;1.30;;
35126;SDS011;21300;52.006;5.798;2022-07-29T01:52:49;4.88;;;1.58;;
35126;SDS011;21300;52.006;5.798;2022-07-29T01:55:21;6.10;;;1.58;;
35126;SDS011;21300;52.006;5.798;2022-07-29T01:57:52;5.65;;;1.50;;
35126;SDS011;21300;52.006;5.798;2022-07-29T02:00:18;4.70;;;1.67;;
35126;SDS011;21300;52.006;5.798;2022-07-29T02:02:46;4.50;;;1.35;;
35126;SDS011;21300;52.006;5.798;2022-07-29T02:05:15;4.03;;;1.70;;
35126;SDS011;21300;52.006;5.798;2022-07-29T02:07:44;3.85;;;1.30;;
35126;SDS011;21300;52.006;5.798;2022-07-29T02:10:12;2.83;;;1.42;;
35126;SDS011;21300;52.006;5.798;2022-07-29T02:12:57;5.80;;;1.73;;
35126;SDS011;21300;52.006;5.798;2022-07-29T02:15:24;5.60;;;1.70;;
35126;SDS011;21300;52.006;5.798;2022-07-29T02:17:56;3.78;;;1.50;;
35126;SDS011;21300;52.006;5.798;2022-07-29T02:20:26;5.03;;;1.50;;
35126;SDS011;21300;52.006;5.798;2022-07-29T02:22:53;5.13;;;1.63;;
35126;SDS011;21300;52.006;5.798;2022-07-29T02:25:21;3.45;;;1.45;;
35126;SDS011;21300;52.006;5.798;2022-07-29T02:27:49;4.88;;;1.63;;
35126;SDS011;21300;52.006;5.798;2022-07-29T02:30:16;5.28;;;1.70;;
35126;SDS011;21300;52.006;5.798;2022-07-29T02:32:43;3.55;;;1.48;;
35126;SDS011;21300;52.006;5.798;2022-07-29T02:35:10;4.43;;;1.60;;
35126;SDS011;21300;52.006;5.798;2022-07-29T02:37:39;1.98;;;1.42;;
35126;SDS011;21300;52.006;5.798;2022-07-29T02:40:06;4.00;;;1.90;;
35126;SDS011;21300;52.006;5.798;2022-07-29T02:42:35;5.18;;;1.60;;
35126;SDS011;21300;52.006;5.798;2022-07-29T02:45:02;3.45;;;1.67;;
35126;SDS011;21300;52.006;5.798;2022-07-29T02:47:45;4.32;;;1.88;;
35126;SDS011;21300;52.006;5.798;2022-07-29T02:50:22;5.20;;;1.65;;
35126;SDS011;21300;52.006;5.798;2022-07-29T02:52:58;3.55;;;1.73;;
35126;SDS011;21300;52.006;5.798;2022-07-29T02:55:40;3.45;;;1.83;;
35126;SDS011;21300;52.006;5.798;2022-07-29T03:01:26;2.38;;;1.35;;
35126;SDS011;21300;52.006;5.798;2022-07-29T03:03:55;2.70;;;1.80;;
35126;SDS011;21300;52.006;5.798;2022-07-29T03:06:25;5.30;;;1.83;;
35126;SDS011;21300;52.006;5.798;2022-07-29T03:08:55;3.28;;;1.63;;
35126;SDS011;21300;52.006;5.798;2022-07-29T03:11:22;4.32;;;1.98;;
35126;SDS011;21300;52.006;5.798;2022-07-29T03:13:49;4.90;;;1.95;;
35126;SDS011;21300;52.006;5.798;2022-07-29T03:16:18;4.00;;;1.77;;
35126;SDS011;21300;52.006;5.798;2022-07-29T03:18:51;5.28;;;1.88;;
35126;SDS011;21300;52.006;5.798;2022-07-29T03:21:20;7.05;;;1.80;;
35126;SDS011;21300;52.006;5.798;2022-07-29T03:23:46;6.38;;;2.10;;
35126;SDS011;21300;52.006;5.798;2022-07-29T03:26:13;4.32;;;1.83;;
35126;SDS011;21300;52.006;5.798;2022-07-29T03:28:39;5.72;;;1.90;;
35126;SDS011;21300;52.006;5.798;2022-07-29T03:31:16;6.18;;;2.25;;
35126;SDS011;21300;52.006;5.798;2022-07-29T03:33:42;4.65;;;2.17;;
35126;SDS011;21300;52.006;5.798;2022-07-29T03:36:08;3.10;;;2.30;;
35126;SDS011;21300;52.006;5.798;2022-07-29T03:38:38;5.45;;;2.08;;
35126;SDS011;21300;52.006;5.798;2022-07-29T03:41:09;7.30;;;1.90;;
35126;SDS011;21300;52.006;5.798;2022-07-29T03:43:37;3.58;;;2.20;;
35126;SDS011;21300;52.006;5.798;2022-07-29T03:46:09;5.00;;;2.40;;
35126;SDS011;21300;52.006;5.798;2022-07-29T03:48:37;6.13;;;2.15;;
35126;SDS011;21300;52.006;5.798;2022-07-29T03:51:07;9.02;;;2.60;;
35126;SDS011;21300;52.006;5.798;2022-07-29T03:53:33;6.25;;;2.33;;
35126;SDS011;21300;52.006;5.798;2022-07-29T03:56:00;6.47;;;2.60;;
35126;SDS011;21300;52.006;5.798;2022-07-29T03:58:28;5.38;;;2.58;;
35126;SDS011;21300;52.006;5.798;2022-07-29T04:00:56;6.03;;;2.72;;
35126;SDS011;21300;52.006;5.798;2022-07-29T04:03:22;5.90;;;2.22;;
35126;SDS011;21300;52.006;5.798;2022-07-29T04:06:21;3.63;;;2.00;;
35126;SDS011;21300;52.006;5.798;2022-07-29T04:08:39;3.40;;;2.50;;
35126;SDS011;21300;52.006;5.798;2022-07-29T04:11:05;6.68;;;2.50;;
35126;SDS011;21300;52.006;5.798;2022-07-29T04:13:31;4.82;;;2.28;;
35126;SDS011;21300;52.006;5.798;2022-07-29T04:15:58;4.63;;;2.42;;
35126;SDS011;21300;52.006;5.798;2022-07-29T04:18:24;3.65;;;2.42;;
35126;SDS011;21300;52.006;5.798;2022-07-29T04:20:49;5.57;;;2.50;;
35126;SDS011;21300;52.006;5.798;2022-07-29T04:23:15;3.90;;;2.13;;
35126;SDS011;21300;52.006;5.798;2022-07-29T04:25:41;3.22;;;2.08;;
35126;SDS011;21300;52.006;5.798;2022-07-29T04:28:08;5.68;;;2.60;;
35126;SDS011;21300;52.006;5.798;2022-07-29T04:30:34;4.88;;;2.10;;
35126;SDS011;21300;52.006;5.798;2022-07-29T04:33:01;5.25;;;2.35;;
35126;SDS011;21300;52.006;5.798;2022-07-29T04:35:33;4.53;;;2.92;;
35126;SDS011;21300;52.006;5.798;2022-07-29T04:38:01;5.53;;;2.78;;
35126;SDS011;21300;52.006;5.798;2022-07-29T04:40:27;5.13;;;2.53;;
35126;SDS011;21300;52.006;5.798;2022-07-29T04:42:53;4.07;;;2.50;;
35126;SDS011;21300;52.006;5.798;2022-07-29T04:45:23;2.83;;;2.40;;
35126;SDS011;21300;52.006;5.798;2022-07-29T04:47:49;4.85;;;2.33;;
35126;SDS011;21300;52.006;5.798;2022-07-29T04:50:15;4.55;;;2.50;;
35126;SDS011;21300;52.006;5.798;2022-07-29T04:52:40;7.50;;;2.58;;
35126;SDS011;21300;52.006;5.798;2022-07-29T04:55:06;5.07;;;2.15;;
35126;SDS011;21300;52.006;5.798;2022-07-29T04:57:32;3.10;;;2.72;;
35126;SDS011;21300;52.006;5.798;2022-07-29T04:59:57;5.22;;;2.65;;
35126;SDS011;21300;52.006;5.798;2022-07-29T05:02:23;7.80;;;2.42;;
35126;SDS011;21300;52.006;5.798;2022-07-29T05:04:49;3.88;;;2.75;;
35126;SDS011;21300;52.006;5.798;2022-07-29T05:07:15;4.70;;;2.95;;
35126;SDS011;21300;52.006;5.798;2022-07-29T05:09:40;4.78;;;2.67;;
35126;SDS011;21300;52.006;5.798;2022-07-29T05:12:06;4.80;;;2.60;;
35126;SDS011;21300;52.006;5.798;2022-07-29T05:14:32;4.40;;;2.22;;
35126;SDS011;21300;52.006;5.798;2022-07-29T05:16:58;5.30;;;2.65;;
35126;SDS011;21300;52.006;5.798;2022-07-29T05:19:23;4.47;;;2.53;;
35126;SDS011;21300;52.006;5.798;2022-07-29T05:21:49;6.05;;;2.50;;
35126;SDS011;21300;52.006;5.798;2022-07-29T05:24:15;4.80;;;2.60;;
35126;SDS011;21300;52.006;5.798;2022-07-29T05:26:41;3.08;;;2.35;;
35126;SDS011;21300;52.006;5.798;2022-07-29T05:29:06;6.97;;;2.28;;
35126;SDS011;21300;52.006;5.798;2022-07-29T05:31:32;4.90;;;2.53;;
35126;SDS011;21300;52.006;5.798;2022-07-29T05:33:58;5.05;;;2.60;;
35126;SDS011;21300;52.006;5.798;2022-07-29T05:36:24;4.22;;;2.75;;
35126;SDS011;21300;52.006;5.798;2022-07-29T05:38:49;4.43;;;2.70;;
35126;SDS011;21300;52.006;5.798;2022-07-29T05:41:17;5.63;;;2.70;;
35126;SDS011;21300;52.006;5.798;2022-07-29T05:43:43;3.50;;;2.22;;
35126;SDS011;21300;52.006;5.798;2022-07-29T05:46:09;4.75;;;2.72;;
35126;SDS011;21300;52.006;5.798;2022-07-29T05:48:34;4.53;;;2.60;;
35126;SDS011;21300;52.006;5.798;2022-07-29T05:51:00;5.10;;;2.65;;
35126;SDS011;21300;52.006;5.798;2022-07-29T05:53:26;4.72;;;2.67;;
35126;SDS011;21300;52.006;5.798;2022-07-29T05:55:52;6.40;;;2.63;;
35126;SDS011;21300;52.006;5.798;2022-07-29T05:58:18;5.05;;;3.08;;
35126;SDS011;21300;52.006;5.798;2022-07-29T06:00:44;3.97;;;2.55;;
35126;SDS011;21300;52.006;5.798;2022-07-29T06:03:10;5.78;;;2.60;;
35126;SDS011;21300;52.006;5.798;2022-07-29T06:05:36;6.55;;;2.65;;
35126;SDS011;21300;52.006;5.798;2022-07-29T06:08:21;5.03;;;2.75;;
35126;SDS011;21300;52.006;5.798;2022-07-29T06:10:46;5.57;;;3.08;;
35126;SDS011;21300;52.006;5.798;2022-07-29T06:13:12;5.82;;;3.38;;
35126;SDS011;21300;52.006;5.798;2022-07-29T06:18:25;5.50;;;2.83;;
35126;SDS011;21300;52.006;5.798;2022-07-29T06:21:01;7.78;;;3.33;;
35126;SDS011;21300;52.006;5.798;2022-07-29T06:23:33;5.55;;;3.42;;
35126;SDS011;21300;52.006;5.798;2022-07-29T06:26:00;5.45;;;2.63;;
35126;SDS011;21300;52.006;5.798;2022-07-29T06:28:30;5.45;;;2.97;;
35126;SDS011;21300;52.006;5.798;2022-07-29T06:31:14;8.20;;;3.15;;
35126;SDS011;21300;52.006;5.798;2022-07-29T06:33:43;7.70;;;2.70;;
35126;SDS011;21300;52.006;5.798;2022-07-29T06:36:09;5.97;;;2.78;;
35126;SDS011;21300;52.006;5.798;2022-07-29T06:38:35;4.53;;;3.00;;
35126;SDS011;21300;52.006;5.798;2022-07-29T06:41:12;7.63;;;3.42;;
35126;SDS011;21300;52.006;5.798;2022-07-29T06:43:41;6.03;;;2.90;;
35126;SDS011;21300;52.006;5.798;2022-07-29T06:46:10;6.30;;;3.10;;
35126;SDS011;21300;52.006;5.798;2022-07-29T06:48:39;4.95;;;2.88;;
35126;SDS011;21300;52.006;5.798;2022-07-29T06:51:07;4.00;;;2.92;;
35126;SDS011;21300;52.006;5.798;2022-07-29T06:53:37;6.57;;;3.00;;
35126;SDS011;21300;52.006;5.798;2022-07-29T06:56:04;9.02;;;3.08;;
35126;SDS011;21300;52.006;5.798;2022-07-29T06:58:33;7.20;;;3.20;;
35126;SDS011;21300;52.006;5.798;2022-07-29T07:01:00;4.30;;;2.90;;
35126;SDS011;21300;52.006;5.798;2022-07-29T07:03:27;6.65;;;3.10;;
35126;SDS011;21300;52.006;5.798;2022-07-29T07:05:53;6.45;;;3.08;;
35126;SDS011;21300;52.006;5.798;2022-07-29T07:08:20;6.82;;;3.35;;
35126;SDS011;21300;52.006;5.798;2022-07-29T07:10:47;6.78;;;3.33;;
35126;SDS011;21300;52.006;5.798;2022-07-29T07:13:13;5.18;;;3.38;;
35126;SDS011;21300;52.006;5.798;2022-07-29T07:15:39;5.50;;;3.00;;
35126;SDS011;21300;52.006;5.798;2022-07-29T07:18:06;5.38;;;3.42;;
35126;SDS011;21300;52.006;5.798;2022-07-29T07:20:35;5.35;;;3.60;;
35126;SDS011;21300;52.006;5.798;2022-07-29T07:23:02;4.70;;;3.20;;
35126;SDS011;21300;52.006;5.798;2022-07-29T07:25:28;4.65;;;3.25;;
35126;SDS011;21300;52.006;5.798;2022-07-29T07:27:53;4.85;;;3.38;;
35126;SDS011;21300;52.006;5.798;2022-07-29T07:30:19;3.85;;;3.03;;
35126;SDS011;21300;52.006;5.798;2022-07-29T07:32:45;5.63;;;2.88;;
35126;SDS011;21300;52.006;5.798;2022-07-29T07:35:10;5.57;;;3.13;;
35126;SDS011;21300;52.006;5.798;2022-07-29T07:37:36;4.97;;;3.17;;
35126;SDS011;21300;52.006;5.798;2022-07-29T07:40:03;5.90;;;3.22;;
35126;SDS011;21300;52.006;5.798;2022-07-29T07:42:29;4.80;;;2.80;;
35126;SDS011;21300;52.006;5.798;2022-07-29T07:44:55;7.45;;;3.42;;
35126;SDS011;21300;52.006;5.798;2022-07-29T07:47:20;5.07;;;3.40;;
35126;SDS011;21300;52.006;5.798;2022-07-29T07:49:48;4.70;;;2.80;;
35126;SDS011;21300;52.006;5.798;2022-07-29T07:52:18;6.22;;;3.40;;
35126;SDS011;21300;52.006;5.798;2022-07-29T07:54:45;5.80;;;3.10;;
35126;SDS011;21300;52.006;5.798;2022-07-29T07:57:12;9.25;;;3.45;;
35126;SDS011;21300;52.006;5.798;2022-07-29T07:59:38;6.57;;;3.60;;
35126;SDS011;21300;52.006;5.798;2022-07-29T08:02:04;6.43;;;3.58;;
35126;SDS011;21300;52.006;5.798;2022-07-29T08:04:31;8.63;;;3.03;;
35126;SDS011;21300;52.006;5.798;2022-07-29T08:07:19;8.63;;;3.25;;
35126;SDS011;21300;52.006;5.798;2022-07-29T08:09:57;4.82;;;3.15;;
35126;SDS011;21300;52.006;5.798;2022-07-29T08:12:40;5.47;;;3.28;;
35126;SDS011;21300;52.006;5.798;2022-07-29T08:15:05;4.80;;;3.10;;
35126;SDS011;21300;52.006;5.798;2022-07-29T08:17:32;5.53;;;3.20;;
35126;SDS011;21300;52.006;5.798;2022-07-29T08:19:58;5.70;;;3.20;;
35126;SDS011;21300;52.006;5.798;2022-07-29T08:22:24;7.18;;;3.00;;
35126;SDS011;21300;52.006;5.798;2022-07-29T08:24:50;8.05;;;3.45;;
35126;SDS011;21300;52.006;5.798;2022-07-29T08:27:20;4.53;;;2.70;;
35126;SDS011;21300;52.006;5.798;2022-07-29T08:29:45;5.07;;;3.08;;
35126;SDS011;21300;52.006;5.798;2022-07-29T08:32:11;6.60;;;3.08;;
35126;SDS011;21300;52.006;5.798;2022-07-29T08:34:37;6.32;;;2.90;;
35126;SDS011;21300;52.006;5.798;2022-07-29T08:37:03;10.05;;;3.00;;
35126;SDS011;21300;52.006;5.798;2022-07-29T08:39:29;6.85;;;3.60;;
35126;SDS011;21300;52.006;5.798;2022-07-29T08:41:54;5.15;;;2.80;;
35126;SDS011;21300;52.006;5.798;2022-07-29T08:44:20;7.00;;;3.13;;
35126;SDS011;21300;52.006;5.798;2022-07-29T08:46:49;4.88;;;3.00;;
35126;SDS011;21300;52.006;5.798;2022-07-29T08:49:15;3.88;;;2.97;;
35126;SDS011;21300;52.006;5.798;2022-07-29T08:51:41;5.53;;;2.92;;
35126;SDS011;21300;52.006;5.798;2022-07-29T08:54:08;6.78;;;3.28;;
35126;SDS011;21300;52.006;5.798;2022-07-29T08:56:35;6.10;;;3.10;;
35126;SDS011;21300;52.006;5.798;2022-07-29T08:59:04;5.15;;;3.08;;
35126;SDS011;21300;52.006;5.798;2022-07-29T09:01:32;4.60;;;2.90;;
35126;SDS011;21300;52.006;5.798;2022-07-29T09:03:59;7.55;;;3.08;;
35126;SDS011;21300;52.006;5.798;2022-07-29T09:06:29;6.25;;;3.25;;
35126;SDS011;21300;52.006;5.798;2022-07-29T09:08:58;4.82;;;2.50;;
35126;SDS011;21300;52.006;5.798;2022-07-29T09:11:25;4.30;;;2.75;;
35126;SDS011;21300;52.006;5.798;2022-07-29T09:13:52;6.00;;;2.95;;
35126;SDS011;21300;52.006;5.798;2022-07-29T09:16:18;5.55;;;2.80;;
35126;SDS011;21300;52.006;5.798;2022-07-29T09:18:44;4.25;;;2.90;;
35126;SDS011;21300;52.006;5.798;2022-07-29T09:21:11;6.05;;;3.30;;
35126;SDS011;21300;52.006;5.798;2022-07-29T09:24:09;10.65;;;3.47;;
35126;SDS011;21300;52.006;5.798;2022-07-29T09:26:40;5.60;;;2.70;;
35126;SDS011;21300;52.006;5.798;2022-07-29T09:29:11;4.38;;;2.70;;
35126;SDS011;21300;52.006;5.798;2022-07-29T09:31:44;7.82;;;3.30;;
35126;SDS011;21300;52.006;5.798;2022-07-29T09:34:13;7.25;;;3.10;;
35126;SDS011;21300;52.006;5.798;2022-07-29T09:36:58;5.57;;;2.42;;
35126;SDS011;21300;52.006;5.798;2022-07-29T09:39:34;6.10;;;2.78;;
35126;SDS011;21300;52.006;5.798;2022-07-29T09:42:10;6.35;;;2.65;;
35126;SDS011;21300;52.006;5.798;2022-07-29T09:44:49;4.18;;;2.30;;
35126;SDS011;21300;52.006;5.798;2022-07-29T09:47:18;6.13;;;2.85;;
35126;SDS011;21300;52.006;5.798;2022-07-29T09:50:04;6.65;;;3.25;;
35126;SDS011;21300;52.006;5.798;2022-07-29T09:52:30;3.75;;;2.90;;
35126;SDS011;21300;52.006;5.798;2022-07-29T09:55:06;4.70;;;3.03;;
35126;SDS011;21300;52.006;5.798;2022-07-29T09:57:33;5.25;;;2.58;;
35126;SDS011;21300;52.006;5.798;2022-07-29T10:00:08;6.90;;;2.47;;
35126;SDS011;21300;52.006;5.798;2022-07-29T10:02:37;4.55;;;2.85;;
35126;SDS011;21300;52.006;5.798;2022-07-29T10:05:05;4.53;;;2.58;;
35126;SDS011;21300;52.006;5.798;2022-07-29T10:07:45;5.47;;;2.55;;
35126;SDS011;21300;52.006;5.798;2022-07-29T10:10:19;7.43;;;2.97;;
35126;SDS011;21300;52.006;5.798;2022-07-29T10:12:50;7.32;;;2.67;;
35126;SDS011;21300;52.006;5.798;2022-07-29T10:15:21;5.40;;;2.30;;
35126;SDS011;21300;52.006;5.798;2022-07-29T10:17:48;4.05;;;2.50;;
35126;SDS011;21300;52.006;5.798;2022-07-29T10:20:15;7.05;;;2.80;;
35126;SDS011;21300;52.006;5.798;2022-07-29T10:22:41;4.68;;;2.42;;
35126;SDS011;21300;52.006;5.798;2022-07-29T10:25:08;4.22;;;2.17;;
35126;SDS011;21300;52.006;5.798;2022-07-29T10:27:34;4.15;;;1.98;;
35126;SDS011;21300;52.006;5.798;2022-07-29T10:30:01;5.63;;;1.90;;
35126;SDS011;21300;52.006;5.798;2022-07-29T10:32:39;4.18;;;2.03;;
35126;SDS011;21300;52.006;5.798;2022-07-29T10:40:28;5.22;;;1.70;;
35126;SDS011;21300;52.006;5.798;2022-07-29T10:43:32;4.25;;;2.05;;
35126;SDS011;21300;52.006;5.798;2022-07-29T10:46:01;6.30;;;1.88;;
35126;SDS011;21300;52.006;5.798;2022-07-29T10:48:28;7.85;;;2.17;;
35126;SDS011;21300;52.006;5.798;2022-07-29T10:51:01;8.38;;;2.00;;
35126;SDS011;21300;52.006;5.798;2022-07-29T10:53:48;4.97;;;1.45;;
35126;SDS011;21300;52.006;5.798;2022-07-29T10:56:34;4.22;;;1.63;;
35126;SDS011;21300;52.006;5.798;2022-07-29T10:59:32;3.17;;;1.40;;
35126;SDS011;21300;52.006;5.798;2022-07-29T11:01:53;5.38;;;1.88;;
35126;SDS011;21300;52.006;5.798;2022-07-29T11:07:09;7.20;;;1.77;;
35126;SDS011;21300;52.006;5.798;2022-07-29T11:09:36;2.83;;;1.40;;
35126;SDS011;21300;52.006;5.798;2022-07-29T11:12:01;6.43;;;2.20;;
35126;SDS011;21300;52.006;5.798;2022-07-29T11:17:18;6.55;;;1.40;;
35126;SDS011;21300;52.006;5.798;2022-07-29T11:19:44;5.88;;;1.70;;
35126;SDS011;21300;52.006;5.798;2022-07-29T11:22:10;3.95;;;1.73;;
35126;SDS011;21300;52.006;5.798;2022-07-29T11:24:36;4.22;;;1.85;;
35126;SDS011;21300;52.006;5.798;2022-07-29T11:27:18;5.65;;;1.38;;
35126;SDS011;21300;52.006;5.798;2022-07-29T11:29:55;4.80;;;1.70;;
35126;SDS011;21300;52.006;5.798;2022-07-29T11:32:35;7.30;;;1.83;;
35126;SDS011;21300;52.006;5.798;2022-07-29T11:37:42;4.13;;;1.50;;
35126;SDS011;21300;52.006;5.798;2022-07-29T11:40:10;5.72;;;1.65;;
35126;SDS011;21300;52.006;5.798;2022-07-29T11:42:38;5.43;;;1.80;;
35126;SDS011;21300;52.006;5.798;2022-07-29T11:45:06;3.42;;;1.63;;
35126;SDS011;21300;52.006;5.798;2022-07-29T11:50:13;10.00;;;2.00;;
35126;SDS011;21300;52.006;5.798;2022-07-29T11:52:42;4.20;;;1.77;;
35126;SDS011;21300;52.006;5.798;2022-07-29T11:55:15;3.13;;;1.60;;
35126;SDS011;21300;52.006;5.798;2022-07-29T11:58:15;7.10;;;2.00;;
35126;SDS011;21300;52.006;5.798;2022-07-29T12:00:40;6.15;;;1.98;;
35126;SDS011;21300;52.006;5.798;2022-07-29T12:03:08;6.32;;;1.73;;
35126;SDS011;21300;52.006;5.798;2022-07-29T12:05:37;6.32;;;2.10;;
35126;SDS011;21300;52.006;5.798;2022-07-29T12:08:12;6.18;;;1.90;;
35126;SDS011;21300;52.006;5.798;2022-07-29T12:10:44;4.35;;;1.80;;
35126;SDS011;21300;52.006;5.798;2022-07-29T12:13:11;4.75;;;2.03;;
35126;SDS011;21300;52.006;5.798;2022-07-29T12:15:37;4.53;;;1.90;;
35126;SDS011;21300;52.006;5.798;2022-07-29T12:18:11;2.50;;;1.80;;
35126;SDS011;21300;52.006;5.798;2022-07-29T12:20:39;6.75;;;2.38;;
35126;SDS011;21300;52.006;5.798;2022-07-29T12:23:06;4.22;;;1.92;;
35126;SDS011;21300;52.006;5.798;2022-07-29T12:25:34;5.22;;;2.08;;
35126;SDS011;21300;52.006;5.798;2022-07-29T12:28:04;5.93;;;1.92;;
35126;SDS011;21300;52.006;5.798;2022-07-29T12:30:40;5.25;;;2.10;;
35126;SDS011;21300;52.006;5.798;2022-07-29T12:33:11;4.95;;;2.20;;
35126;SDS011;21300;52.006;5.798;2022-07-29T12:35:41;4.05;;;2.03;;
35126;SDS011;21300;52.006;5.798;2022-07-29T12:38:10;4.72;;;2.15;;
35126;SDS011;21300;52.006;5.798;2022-07-29T12:40:37;7.03;;;2.35;;
35126;SDS011;21300;52.006;5.798;2022-07-29T12:43:13;6.43;;;2.13;;
35126;SDS011;21300;52.006;5.798;2022-07-29T12:45:40;4.82;;;2.10;;
35126;SDS011;21300;52.006;5.798;2022-07-29T12:48:08;4.75;;;2.05;;
35126;SDS011;21300;52.006;5.798;2022-07-29T12:50:35;8.60;;;2.58;;
35126;SDS011;21300;52.006;5.798;2022-07-29T12:53:09;6.60;;;2.20;;
35126;SDS011;21300;52.006;5.798;2022-07-29T12:55:45;6.18;;;1.95;;
35126;SDS011;21300;52.006;5.798;2022-07-29T12:58:26;6.20;;;2.25;;
35126;SDS011;21300;52.006;5.798;2022-07-29T13:01:06;3.38;;;2.17;;
35126;SDS011;21300;52.006;5.798;2022-07-29T13:14:12;4.68;;;2.20;;
35126;SDS011;21300;52.006;5.798;2022-07-29T13:22:10;7.22;;;2.33;;
35126;SDS011;21300;52.006;5.798;2022-07-29T13:29:49;3.92;;;2.10;;
35126;SDS011;21300;52.006;5.798;2022-07-29T13:32:20;4.88;;;2.20;;
35126;SDS011;21300;52.006;5.798;2022-07-29T13:34:46;4.97;;;1.80;;
35126;SDS011;21300;52.006;5.798;2022-07-29T13:37:12;3.70;;;1.80;;
35126;SDS011;21300;52.006;5.798;2022-07-29T13:39:37;5.57;;;1.98;;
35126;SDS011;21300;52.006;5.798;2022-07-29T13:42:03;5.95;;;1.80;;
35126;SDS011;21300;52.006;5.798;2022-07-29T13:44:29;4.22;;;1.80;;
35126;SDS011;21300;52.006;5.798;2022-07-29T13:49:41;3.92;;;1.70;;
35126;SDS011;21300;52.006;5.798;2022-07-29T13:52:06;4.40;;;1.70;;
35126;SDS011;21300;52.006;5.798;2022-07-29T13:54:32;3.35;;;2.00;;
35126;SDS011;21300;52.006;5.798;2022-07-29T13:56:58;5.22;;;2.13;;
35126;SDS011;21300;52.006;5.798;2022-07-29T13:59:23;3.88;;;1.90;;
35126;SDS011;21300;52.006;5.798;2022-07-29T14:01:49;5.82;;;2.10;;
35126;SDS011;21300;52.006;5.798;2022-07-29T14:04:15;4.90;;;1.63;;
35126;SDS011;21300;52.006;5.798;2022-07-29T14:06:41;5.55;;;1.90;;
35126;SDS011;21300;52.006;5.798;2022-07-29T14:09:07;4.25;;;1.98;;
35126;SDS011;21300;52.006;5.798;2022-07-29T14:11:34;5.88;;;1.73;;
35126;SDS011;21300;52.006;5.798;2022-07-29T14:14:00;4.13;;;1.88;;
35126;SDS011;21300;52.006;5.798;2022-07-29T14:16:26;4.85;;;1.98;;
35126;SDS011;21300;52.006;5.798;2022-07-29T14:18:51;6.60;;;1.92;;
35126;SDS011;21300;52.006;5.798;2022-07-29T14:21:17;4.15;;;1.98;;
35126;SDS011;21300;52.006;5.798;2022-07-29T14:23:43;5.47;;;2.35;;
35126;SDS011;21300;52.006;5.798;2022-07-29T14:26:09;14.90;;;2.35;;
35126;SDS011;21300;52.006;5.798;2022-07-29T14:28:34;5.45;;;2.00;;
35126;SDS011;21300;52.006;5.798;2022-07-29T14:31:00;3.92;;;2.10;;
35126;SDS011;21300;52.006;5.798;2022-07-29T14:33:26;3.20;;;2.20;;
35126;SDS011;21300;52.006;5.798;2022-07-29T14:35:51;5.40;;;2.22;;
35126;SDS011;21300;52.006;5.798;2022-07-29T14:38:17;4.05;;;1.60;;
35126;SDS011;21300;52.006;5.798;2022-07-29T14:40:43;3.10;;;2.00;;
35126;SDS011;21300;52.006;5.798;2022-07-29T14:43:08;5.13;;;1.70;;
35126;SDS011;21300;52.006;5.798;2022-07-29T14:45:34;3.78;;;1.70;;
35126;SDS011;21300;52.006;5.798;2022-07-29T14:47:59;5.40;;;1.92;;
35126;SDS011;21300;52.006;5.798;2022-07-29T14:50:25;4.63;;;1.88;;
35126;SDS011;21300;52.006;5.798;2022-07-29T14:52:51;6.32;;;2.45;;
35126;SDS011;21300;52.006;5.798;2022-07-29T14:55:17;7.13;;;1.90;;
35126;SDS011;21300;52.006;5.798;2022-07-29T14:57:43;4.78;;;1.83;;
35126;SDS011;21300;52.006;5.798;2022-07-29T15:00:08;6.43;;;2.10;;
35126;SDS011;21300;52.006;5.798;2022-07-29T15:02:35;3.20;;;1.80;;
35126;SDS011;21300;52.006;5.798;2022-07-29T15:05:01;2.70;;;1.70;;
35126;SDS011;21300;52.006;5.798;2022-07-29T15:07:27;3.60;;;1.90;;
35126;SDS011;21300;52.006;5.798;2022-07-29T15:09:52;7.13;;;2.33;;
35126;SDS011;21300;52.006;5.798;2022-07-29T15:12:18;7.15;;;2.45;;
35126;SDS011;21300;52.006;5.798;2022-07-29T15:14:44;6.47;;;2.25;;
35126;SDS011;21300;52.006;5.798;2022-07-29T15:17:09;7.78;;;2.20;;
35126;SDS011;21300;52.006;5.798;2022-07-29T15:19:35;4.85;;;2.47;;
35126;SDS011;21300;52.006;5.798;2022-07-29T15:22:01;3.10;;;2.00;;
35126;SDS011;21300;52.006;5.798;2022-07-29T15:24:27;7.72;;;1.88;;
35126;SDS011;21300;52.006;5.798;2022-07-29T15:26:53;6.88;;;2.42;;
35126;SDS011;21300;52.006;5.798;2022-07-29T15:29:18;5.85;;;2.50;;
35126;SDS011;21300;52.006;5.798;2022-07-29T15:31:44;10.73;;;2.42;;
35126;SDS011;21300;52.006;5.798;2022-07-29T15:34:10;9.23;;;2.75;;
35126;SDS011;21300;52.006;5.798;2022-07-29T15:36:35;7.22;;;2.20;;
35126;SDS011;21300;52.006;5.798;2022-07-29T15:39:01;5.70;;;2.30;;
35126;SDS011;21300;52.006;5.798;2022-07-29T15:41:27;4.80;;;2.15;;
35126;SDS011;21300;52.006;5.798;2022-07-29T15:43:53;3.28;;;1.92;;
35126;SDS011;21300;52.006;5.798;2022-07-29T15:46:19;7.40;;;2.10;;
35126;SDS011;21300;52.006;5.798;2022-07-29T15:49:04;5.25;;;2.22;;
35126;SDS011;21300;52.006;5.798;2022-07-29T15:51:31;10.70;;;2.58;;
35126;SDS011;21300;52.006;5.798;2022-07-29T15:53:57;6.50;;;2.08;;
35126;SDS011;21300;52.006;5.798;2022-07-29T15:56:23;3.90;;;2.20;;